createdAt,value
2022-11-05T00:00:37.136Z,2.72
2022-11-05T00:03:22.766Z,2.90
2022-11-05T00:06:10.752Z,3.63
2022-11-05T00:08:56.405Z,3.08
2022-11-05T00:11:42.929Z,4.05
2022-11-05T00:16:55.851Z,2.97
2022-11-05T00:19:23.150Z,4.00
2022-11-05T00:22:08.417Z,4.30
2022-11-05T00:24:53.832Z,3.92
2022-11-05T00:27:23.332Z,3.50
2022-11-05T00:29:50.619Z,3.08
2022-11-05T00:32:17.138Z,3.40
2022-11-05T00:34:43.865Z,4.70
2022-11-05T00:37:12.056Z,3.50
2022-11-05T00:39:38.763Z,4.00
2022-11-05T00:42:24.582Z,4.50
2022-11-05T00:45:03.263Z,3.70
2022-11-05T00:47:50.714Z,3.28
2022-11-05T00:50:19.583Z,3.50
2022-11-05T00:52:57.667Z,3.33
2022-11-05T00:55:35.607Z,3.60
2022-11-05T00:58:04.856Z,3.92
2022-11-05T01:00:34.659Z,3.65
2022-11-05T01:03:13.330Z,3.75
2022-11-05T01:05:45.157Z,3.45
2022-11-05T01:08:21.702Z,3.00
2022-11-05T01:10:58.920Z,3.03
2022-11-05T01:13:31.681Z,3.40
2022-11-05T01:16:04.492Z,2.67
2022-11-05T01:18:31.618Z,2.67
2022-11-05T01:23:25.428Z,2.88
2022-11-05T01:28:19.994Z,1.80
2022-11-05T01:35:41.008Z,2.20
2022-11-05T01:38:10.898Z,2.50
2022-11-05T01:40:43.184Z,2.83
2022-11-05T01:43:15.941Z,2.63
2022-11-05T01:45:49.899Z,3.05
2022-11-05T01:48:21.774Z,2.58
2022-11-05T01:50:59.617Z,2.60
2022-11-05T01:53:44.994Z,2.10
2022-11-05T01:56:15.195Z,2.45
2022-11-05T01:59:17.311Z,2.40
2022-11-05T02:01:45.266Z,2.22
2022-11-05T02:04:17.956Z,2.10
2022-11-05T02:06:48.150Z,2.60
2022-11-05T02:09:30.186Z,2.58
2022-11-05T02:11:58.816Z,2.35
2022-11-05T02:14:27.270Z,2.85
2022-11-05T02:17:04.018Z,2.67
2022-11-05T02:19:55.760Z,2.35
2022-11-05T02:22:37.622Z,3.08
2022-11-05T02:25:44.731Z,2.70
2022-11-05T02:28:52.481Z,3.00
2022-11-05T02:31:54.834Z,2.40
2022-11-05T02:34:40.791Z,1.80
2022-11-05T02:37:33.813Z,2.17
2022-11-05T02:40:15.377Z,2.28
2022-11-05T02:43:07.918Z,2.40
2022-11-05T02:45:52.025Z,2.10
2022-11-05T02:49:00.161Z,2.58
2022-11-05T02:51:36.422Z,2.17
2022-11-05T02:54:16.742Z,2.30
2022-11-05T02:56:48.318Z,2.55
2022-11-05T02:59:17.531Z,2.40
2022-11-05T03:01:47.112Z,2.65
2022-11-05T03:04:17.893Z,2.25
2022-11-05T03:07:12.382Z,2.50
2022-11-05T03:10:25.534Z,1.92
2022-11-05T03:13:05.313Z,2.25
2022-11-05T03:15:44.843Z,2.95
2022-11-05T03:18:24.917Z,2.83
2022-11-05T03:21:01.672Z,2.40
2022-11-05T03:23:40.686Z,2.67
2022-11-05T03:26:26.866Z,2.22
2022-11-05T03:29:04.751Z,2.50
2022-11-05T03:31:33.138Z,2.20
2022-11-05T03:34:03.453Z,2.35
2022-11-05T03:36:45.672Z,2.30
2022-11-05T03:39:45.659Z,2.25
2022-11-05T03:42:15.936Z,2.50
2022-11-05T03:44:50.220Z,2.03
2022-11-05T03:47:25.804Z,2.38
2022-11-05T03:50:08.134Z,2.30
2022-11-05T03:52:47.218Z,2.40
2022-11-05T03:55:15.193Z,2.40
2022-11-05T03:57:47.091Z,2.80
2022-11-05T04:00:17.070Z,2.60
2022-11-05T04:02:43.944Z,2.47
2022-11-05T04:05:13.102Z,2.00
2022-11-05T04:07:58.598Z,2.33
2022-11-05T04:10:44.574Z,2.70
2022-11-05T04:13:27.832Z,2.00
2022-11-05T04:16:15.786Z,2.20
2022-11-05T04:18:43.091Z,2.30
2022-11-05T04:21:32.150Z,1.92
2022-11-05T04:24:10.961Z,2.30
2022-11-05T04:26:47.401Z,2.30
2022-11-05T04:29:32.765Z,2.25
2022-11-05T04:32:00.052Z,2.40
2022-11-05T04:34:30.201Z,1.67
2022-11-05T04:36:57.260Z,1.80
2022-11-05T04:44:20.193Z,1.50
2022-11-05T04:46:47.110Z,1.77
2022-11-05T04:49:14.294Z,2.10
2022-11-05T04:51:41.393Z,1.88
2022-11-05T04:54:08.669Z,2.28
2022-11-05T04:56:35.728Z,2.20
2022-11-05T05:01:29.045Z,2.20
2022-11-05T05:03:56.687Z,1.92
2022-11-05T05:06:23.488Z,2.05
2022-11-05T05:08:51.715Z,2.58
2022-11-05T05:11:20.929Z,1.88
2022-11-05T05:13:51.117Z,1.73
2022-11-05T05:16:26.810Z,1.80
2022-11-05T05:18:56.660Z,2.20
2022-11-05T05:21:38.486Z,1.65
2022-11-05T05:24:15.610Z,1.98
2022-11-05T05:26:48.042Z,2.20
2022-11-05T05:29:16.465Z,1.70
2022-11-05T05:31:45.828Z,1.70
2022-11-05T05:34:16.083Z,1.80
2022-11-05T05:36:43.558Z,2.65
2022-11-05T05:41:40.001Z,1.60
2022-11-05T05:44:06.905Z,1.50
2022-11-05T05:46:33.985Z,1.70
2022-11-05T05:49:01.312Z,1.83
2022-11-05T05:51:28.183Z,1.40
2022-11-05T05:53:55.459Z,2.22
2022-11-05T05:58:55.327Z,1.98
2022-11-05T06:01:23.065Z,1.75
2022-11-05T06:03:51.033Z,1.92
2022-11-05T06:06:20.245Z,1.88
2022-11-05T06:08:47.697Z,1.95
2022-11-05T06:11:16.983Z,2.20
2022-11-05T06:13:44.719Z,2.10
2022-11-05T06:16:12.206Z,1.80
2022-11-05T06:18:39.413Z,2.10
2022-11-05T06:21:12.340Z,1.67
2022-11-05T06:23:41.321Z,1.88
2022-11-05T06:26:14.623Z,1.40
2022-11-05T06:28:42.297Z,1.80
2022-11-05T06:31:13.487Z,3.03
2022-11-05T06:33:46.734Z,2.17
2022-11-05T06:36:16.838Z,2.20
2022-11-05T06:38:45.907Z,2.35
2022-11-05T06:41:12.902Z,1.90
2022-11-05T06:43:41.710Z,2.08
2022-11-05T06:46:11.796Z,2.25
2022-11-05T06:48:40.072Z,2.22
2022-11-05T06:51:08.108Z,1.77
2022-11-05T06:53:35.927Z,1.90
2022-11-05T06:56:10.145Z,2.00
2022-11-05T06:58:41.865Z,2.03
2022-11-05T07:01:12.210Z,1.85
2022-11-05T07:03:39.395Z,2.30
2022-11-05T07:06:07.564Z,2.40
2022-11-05T07:08:49.895Z,1.80
2022-11-05T07:11:19.204Z,1.95
2022-11-05T07:16:18.975Z,1.55
2022-11-05T07:18:49.946Z,2.13
2022-11-05T07:21:16.871Z,2.15
2022-11-05T07:23:47.634Z,2.35
2022-11-05T07:26:15.144Z,2.30
2022-11-05T07:28:44.856Z,2.22
2022-11-05T07:31:12.291Z,2.15
2022-11-05T07:33:39.506Z,2.33
2022-11-05T07:38:32.929Z,3.13
2022-11-05T07:41:00.430Z,2.10
2022-11-05T07:43:27.418Z,1.90
2022-11-05T07:45:54.171Z,2.10
2022-11-05T07:48:21.017Z,2.08
2022-11-05T07:50:54.028Z,2.05
2022-11-05T07:53:21.429Z,2.20
2022-11-05T07:55:48.101Z,2.55
2022-11-05T07:58:14.975Z,2.20
2022-11-05T08:00:41.929Z,2.03
2022-11-05T08:03:12.566Z,2.00
2022-11-05T08:05:44.867Z,2.70
2022-11-05T08:08:22.062Z,2.05
2022-11-05T08:10:48.679Z,2.50
2022-11-05T08:13:17.895Z,2.47
2022-11-05T08:15:51.722Z,2.70
2022-11-05T08:18:18.616Z,2.83
2022-11-05T08:20:46.915Z,3.17
2022-11-05T08:23:14.498Z,3.15
2022-11-05T08:25:42.243Z,2.97
2022-11-05T08:28:12.301Z,2.80
2022-11-05T08:30:40.671Z,2.40
2022-11-05T08:33:18.356Z,2.10
2022-11-05T08:35:48.386Z,2.28
2022-11-05T08:47:11.142Z,2.20
2022-11-05T09:18:38.972Z,1.90
2022-11-05T09:21:07.854Z,1.60
2022-11-05T09:23:37.362Z,1.90
2022-11-05T09:47:53.813Z,2.45
2022-11-05T09:53:02.393Z,1.65
2022-11-05T09:55:33.799Z,1.65
2022-11-05T09:58:04.663Z,1.90
2022-11-05T10:00:32.442Z,1.83
2022-11-05T10:03:04.480Z,2.35
2022-11-05T10:05:33.799Z,1.98
2022-11-05T10:08:22.816Z,2.00
2022-11-05T10:10:53.778Z,2.20
2022-11-05T10:13:26.585Z,2.15
2022-11-05T10:16:00.813Z,2.13
2022-11-05T10:18:39.594Z,1.77
2022-11-05T10:21:07.704Z,2.20
2022-11-05T10:23:34.505Z,2.00
2022-11-05T10:26:10.656Z,1.70
2022-11-05T10:28:37.445Z,1.50
2022-11-05T10:31:08.563Z,1.85
2022-11-05T10:33:47.700Z,1.90
2022-11-05T10:36:23.489Z,1.90
2022-11-05T10:38:51.674Z,1.70
2022-11-05T10:41:32.070Z,2.70
2022-11-05T10:44:16.061Z,1.95
2022-11-05T10:47:07.016Z,1.75
2022-11-05T10:49:57.650Z,1.52
2022-11-05T10:52:33.818Z,1.98
2022-11-05T10:55:04.543Z,1.40
2022-11-05T10:57:40.378Z,1.27
2022-11-05T11:00:19.595Z,1.02
2022-11-05T11:03:05.656Z,1.27
2022-11-05T11:05:38.003Z,1.63
2022-11-05T11:08:10.837Z,1.45
2022-11-05T11:10:52.663Z,1.27
2022-11-05T11:13:24.818Z,1.27
2022-11-05T11:15:51.637Z,1.42
2022-11-05T11:18:33.374Z,1.20
2022-11-05T11:21:24.191Z,1.40
2022-11-05T11:24:23.025Z,1.52
2022-11-05T11:26:50.347Z,1.23
2022-11-05T11:29:28.622Z,1.42
2022-11-05T11:31:58.068Z,1.10
2022-11-05T11:34:40.651Z,1.63
2022-11-05T11:37:19.198Z,1.60
2022-11-05T11:39:50.848Z,1.27
2022-11-05T11:42:31.641Z,1.58
2022-11-05T11:45:02.740Z,1.17
2022-11-05T11:47:30.630Z,1.23
2022-11-05T11:49:59.766Z,1.20
2022-11-05T11:52:31.075Z,1.10
2022-11-05T11:55:28.110Z,1.25
2022-11-05T11:58:10.789Z,1.25
2022-11-05T12:00:48.545Z,1.00
2022-11-05T12:03:30.884Z,1.10
2022-11-05T12:06:10.078Z,1.33
2022-11-05T12:08:59.363Z,1.10
2022-11-05T12:11:53.283Z,0.93
2022-11-05T12:14:45.197Z,1.40
2022-11-05T12:17:32.482Z,1.00
2022-11-05T12:20:20.801Z,1.00
2022-11-05T12:23:13.027Z,1.00
2022-11-05T12:26:00.021Z,1.02
2022-11-05T12:29:17.144Z,1.73
2022-11-05T12:32:10.891Z,1.10
2022-11-05T12:35:02.889Z,0.88
2022-11-05T12:37:33.585Z,1.38
2022-11-05T12:40:16.418Z,1.15
2022-11-05T12:43:11.538Z,1.33
2022-11-05T12:46:09.889Z,1.00
2022-11-05T12:48:52.223Z,1.35
2022-11-05T12:51:44.677Z,1.40
2022-11-05T12:54:33.650Z,0.90
2022-11-05T12:57:03.828Z,1.52
2022-11-05T12:59:53.133Z,1.23
2022-11-05T13:02:31.012Z,1.10
2022-11-05T13:05:08.223Z,1.10
2022-11-05T13:07:44.853Z,1.17
2022-11-05T13:10:21.769Z,1.85
2022-11-05T13:12:57.608Z,1.20
2022-11-05T13:15:31.503Z,1.47
2022-11-05T13:18:00.631Z,1.30
2022-11-05T13:20:39.920Z,1.75
2022-11-05T13:23:30.960Z,1.95
2022-11-05T13:26:20.616Z,1.40
2022-11-05T13:29:11.646Z,1.52
2022-11-05T13:32:03.341Z,1.35
2022-11-05T13:34:37.459Z,2.13
2022-11-05T13:37:27.359Z,2.25
2022-11-05T13:39:57.544Z,1.60
2022-11-05T13:42:54.709Z,1.60
2022-11-05T13:45:26.945Z,1.30
2022-11-05T13:48:31.602Z,1.40
2022-11-05T13:51:04.943Z,1.40
2022-11-05T13:54:09.636Z,1.30
2022-11-05T13:57:05.336Z,1.58
2022-11-05T13:59:49.796Z,1.70
2022-11-05T14:02:21.876Z,1.70
2022-11-05T14:04:59.630Z,1.80
2022-11-05T14:07:35.060Z,1.80
2022-11-05T14:10:25.417Z,1.67
2022-11-05T14:12:54.978Z,1.55
2022-11-05T14:15:26.079Z,1.70
2022-11-05T14:17:57.760Z,1.92
2022-11-05T14:20:31.934Z,1.75
2022-11-05T14:23:24.691Z,1.73
2022-11-05T14:25:52.911Z,1.30
2022-11-05T14:28:38.334Z,1.38
2022-11-05T14:31:47.273Z,1.80
2022-11-05T14:34:14.610Z,1.75
2022-11-05T14:37:01.743Z,1.80
2022-11-05T14:39:30.729Z,1.55
2022-11-05T14:41:59.794Z,1.83
2022-11-05T14:44:28.160Z,1.90
2022-11-05T14:47:03.059Z,2.03
2022-11-05T14:49:40.189Z,1.77
2022-11-05T14:52:11.645Z,1.80
2022-11-05T14:54:52.068Z,2.33
2022-11-05T14:57:40.759Z,2.10
2022-11-05T15:00:40.547Z,1.75
2022-11-05T15:03:45.956Z,1.88
2022-11-05T15:06:35.647Z,1.90
2022-11-05T15:09:18.982Z,2.38
2022-11-05T15:11:54.869Z,2.03
2022-11-05T15:17:53.342Z,1.80
2022-11-05T15:20:51.625Z,2.20
2022-11-05T15:23:22.054Z,2.80
2022-11-05T15:26:19.223Z,2.67
2022-11-05T15:28:51.471Z,2.60
2022-11-05T15:31:26.639Z,2.85
2022-11-05T15:34:16.377Z,3.55
2022-11-05T15:36:54.895Z,3.20
2022-11-05T15:39:46.668Z,2.80
2022-11-05T15:42:16.440Z,3.60
2022-11-05T15:44:45.747Z,2.90
2022-11-05T15:47:20.542Z,2.80
2022-11-05T15:50:01.991Z,3.38
2022-11-05T15:52:37.171Z,2.80
2022-11-05T15:55:19.889Z,3.60
2022-11-05T15:57:51.173Z,3.00
2022-11-05T16:00:37.288Z,3.50
2022-11-05T16:03:12.382Z,2.13
2022-11-05T16:05:43.927Z,2.80
2022-11-05T16:08:23.900Z,3.00
2022-11-05T16:10:54.426Z,2.70
2022-11-05T16:13:35.314Z,3.20
2022-11-05T16:16:13.387Z,2.90
2022-11-05T16:18:40.713Z,2.88
2022-11-05T16:21:25.146Z,2.72
2022-11-05T16:23:56.690Z,2.97
2022-11-05T16:27:01.282Z,2.67
2022-11-05T16:29:35.543Z,2.63
2022-11-05T16:32:15.741Z,3.25
2022-11-05T16:34:48.120Z,3.40
2022-11-05T16:37:17.214Z,2.78
2022-11-05T16:39:43.884Z,2.83
2022-11-05T16:42:23.089Z,3.03
2022-11-05T16:44:51.623Z,3.13
2022-11-05T16:47:22.073Z,3.92
2022-11-05T16:49:49.828Z,4.10
2022-11-05T16:52:16.941Z,8.55
2022-11-05T16:57:32.597Z,4.40
2022-11-05T17:00:00.979Z,3.55
2022-11-05T17:02:31.717Z,3.33
2022-11-05T17:07:27.847Z,3.55
2022-11-05T17:09:55.890Z,3.28
2022-11-05T17:12:22.911Z,4.75
2022-11-05T17:17:16.430Z,3.63
2022-11-05T17:19:43.441Z,3.03
2022-11-05T17:24:37.483Z,3.42
2022-11-05T17:29:30.910Z,3.22
2022-11-05T17:31:57.666Z,3.40
2022-11-05T17:34:24.701Z,3.20
2022-11-05T17:36:54.212Z,3.70
2022-11-05T17:39:21.017Z,3.53
2022-11-05T17:41:48.859Z,3.42
2022-11-05T17:44:18.022Z,3.50
2022-11-05T17:46:45.379Z,4.60
2022-11-05T17:51:38.963Z,3.20
2022-11-05T17:54:07.494Z,3.10
2022-11-05T17:56:41.680Z,2.75
2022-11-05T17:59:10.077Z,4.32
2022-11-05T18:01:41.600Z,3.85
2022-11-05T18:04:09.281Z,4.03
2022-11-05T18:06:43.348Z,3.70
2022-11-05T18:09:11.343Z,3.55
2022-11-05T18:11:38.392Z,4.53
2022-11-05T18:16:32.680Z,3.53
2022-11-05T18:18:59.551Z,3.90
2022-11-05T18:21:26.415Z,4.45
2022-11-05T18:23:53.024Z,4.93
2022-11-05T18:26:19.700Z,5.30
2022-11-05T18:28:46.581Z,4.65
2022-11-05T18:31:20.457Z,4.40
2022-11-05T18:33:48.124Z,4.18
2022-11-05T18:36:23.117Z,4.22
2022-11-05T18:38:49.959Z,4.32
2022-11-05T18:41:23.148Z,5.13
2022-11-05T18:43:53.372Z,5.10
2022-11-05T18:46:51.258Z,4.25
2022-11-05T18:49:07.380Z,4.63
2022-11-05T18:51:34.030Z,4.57
2022-11-05T18:56:28.410Z,4.47
2022-11-05T18:59:22.042Z,5.22
2022-11-05T19:01:43.956Z,4.75
2022-11-05T19:04:11.411Z,4.15
2022-11-05T19:09:08.499Z,4.95
2022-11-05T19:11:35.782Z,5.88
2022-11-05T19:14:02.867Z,6.38
2022-11-05T19:19:00.796Z,4.50
2022-11-05T19:21:28.104Z,4.60
2022-11-05T19:24:00.512Z,5.50
2022-11-05T19:26:29.064Z,5.63
2022-11-05T19:29:00.814Z,5.07
2022-11-05T19:31:27.803Z,5.38
2022-11-05T19:36:22.857Z,5.15
2022-11-05T19:38:54.796Z,5.68
2022-11-05T19:41:22.377Z,4.95
2022-11-05T19:43:48.962Z,4.93
2022-11-05T19:48:44.858Z,5.28
2022-11-05T19:51:20.882Z,4.72
2022-11-05T19:53:48.144Z,5.30
2022-11-05T19:56:25.518Z,4.63
2022-11-05T19:58:53.889Z,5.18
2022-11-05T20:01:22.874Z,4.70
2022-11-05T20:03:50.870Z,5.30
2022-11-05T20:06:25.738Z,5.25
2022-11-05T20:09:19.972Z,5.03
2022-11-05T20:11:41.492Z,4.50
2022-11-05T20:14:10.418Z,4.90
2022-11-05T20:16:39.833Z,4.95
2022-11-05T20:19:09.848Z,4.95
2022-11-05T20:21:37.618Z,4.55
2022-11-05T20:24:05.156Z,4.00
2022-11-05T20:26:32.475Z,4.25
2022-11-05T20:28:59.597Z,3.88
2022-11-05T20:33:53.867Z,4.10
2022-11-05T20:36:23.873Z,3.70
2022-11-05T20:38:53.039Z,3.92
2022-11-05T20:41:21.776Z,3.53
2022-11-05T20:43:48.453Z,3.58
2022-11-05T20:46:18.200Z,3.20
2022-11-05T20:48:45.869Z,3.60
2022-11-05T20:51:16.297Z,3.58
2022-11-05T20:53:43.746Z,4.15
2022-11-05T20:56:18.975Z,4.28
2022-11-05T20:58:47.483Z,3.85
2022-11-05T21:01:16.636Z,5.22
2022-11-05T21:03:44.910Z,4.55
2022-11-05T21:06:13.214Z,4.60
2022-11-05T21:08:40.498Z,4.85
2022-11-05T21:11:08.063Z,4.30
2022-11-05T21:13:35.816Z,5.20
2022-11-05T21:16:05.621Z,4.95
2022-11-05T21:18:35.075Z,5.05
2022-11-05T21:21:08.722Z,4.88
2022-11-05T21:23:35.795Z,4.80
2022-11-05T21:28:32.980Z,4.60
2022-11-05T21:31:04.495Z,5.10
2022-11-05T21:33:32.261Z,4.97
2022-11-05T21:35:59.616Z,6.45
2022-11-05T21:38:26.530Z,6.00
2022-11-05T21:40:53.042Z,6.15
2022-11-05T21:43:19.699Z,5.22
2022-11-05T21:45:46.335Z,5.43
2022-11-05T21:48:15.455Z,5.75
2022-11-05T21:51:18.067Z,6.47
2022-11-05T21:54:03.584Z,5.35
2022-11-05T21:56:49.683Z,5.70
2022-11-05T21:59:38.935Z,5.47
2022-11-05T22:02:09.799Z,5.53
2022-11-05T22:04:45.139Z,6.05
2022-11-05T22:07:14.634Z,5.68
2022-11-05T22:09:41.466Z,6.57
2022-11-05T22:12:08.781Z,5.70
2022-11-05T22:14:36.544Z,6.40
2022-11-05T22:17:03.930Z,5.78
2022-11-05T22:19:31.445Z,6.38
2022-11-05T22:21:59.121Z,6.10
2022-11-05T22:24:28.108Z,6.65
2022-11-05T22:26:54.734Z,6.45
2022-11-05T22:29:21.339Z,6.18
2022-11-05T22:31:47.950Z,7.35
2022-11-05T22:34:14.629Z,7.07
2022-11-05T22:36:41.697Z,5.78
2022-11-05T22:41:35.325Z,5.25
2022-11-05T22:44:03.323Z,6.05
2022-11-05T22:46:30.793Z,6.38
2022-11-05T22:49:00.176Z,7.28
2022-11-05T22:51:29.972Z,6.63
2022-11-05T22:53:58.000Z,6.15
2022-11-05T22:56:27.515Z,6.60
2022-11-05T22:58:54.711Z,6.43
2022-11-05T23:01:22.924Z,6.68
2022-11-05T23:03:52.282Z,7.03
2022-11-05T23:06:43.314Z,6.68
2022-11-05T23:09:31.789Z,6.18
2022-11-05T23:11:58.875Z,6.60
2022-11-05T23:14:26.533Z,5.82
2022-11-05T23:17:12.470Z,5.80
2022-11-05T23:19:58.880Z,5.25
2022-11-05T23:22:48.109Z,5.10
2022-11-05T23:25:17.749Z,5.25
2022-11-05T23:27:46.031Z,4.90
2022-11-05T23:30:19.565Z,4.78
2022-11-05T23:32:46.726Z,5.15
2022-11-05T23:35:13.963Z,5.20
2022-11-05T23:37:59.643Z,5.13
2022-11-05T23:40:29.313Z,5.35
2022-11-05T23:43:15.682Z,5.95
2022-11-05T23:46:02.911Z,5.40
2022-11-05T23:48:32.722Z,4.47
2022-11-05T23:51:08.537Z,5.40
2022-11-05T23:53:39.423Z,6.07
2022-11-05T23:56:10.136Z,5.30
2022-11-05T23:58:39.116Z,5.20
